createdAt,value
2023-01-17T00:00:07.909Z,48.3
2023-01-17T00:05:08.167Z,48.3
2023-01-17T00:10:09.159Z,48.3
2023-01-17T00:15:09.273Z,48.2
2023-01-17T00:20:09.607Z,48.3
2023-01-17T00:25:09.768Z,48.2
2023-01-17T00:30:12.883Z,48.3
2023-01-17T00:35:12.702Z,48.2
2023-01-17T00:40:12.908Z,48.3
2023-01-17T00:45:13.188Z,48.3
2023-01-17T00:50:13.578Z,48.4
2023-01-17T00:55:13.742Z,48.2
2023-01-17T01:00:14.176Z,48.4
2023-01-17T01:05:17.180Z,48.4
2023-01-17T01:10:19.737Z,48.4
2023-01-17T01:15:19.529Z,48.4
2023-01-17T01:20:19.996Z,48.3
2023-01-17T01:25:23.073Z,48.5
2023-01-17T01:30:22.922Z,48.4
2023-01-17T01:35:23.180Z,48.3
2023-01-17T01:40:26.259Z,48.5
2023-01-17T01:45:26.391Z,48.4
2023-01-17T01:50:29.332Z,48.4
2023-01-17T01:55:28.913Z,48.3
2023-01-17T02:00:29.074Z,48.4
2023-01-17T02:05:29.133Z,48.5
2023-01-17T02:10:29.465Z,48.4
2023-01-17T02:15:29.671Z,48.4
2023-01-17T02:20:30.170Z,48.2
2023-01-17T02:25:30.321Z,48.5
2023-01-17T02:30:30.659Z,48.4
2023-01-17T02:35:30.898Z,48.4
2023-01-17T02:40:31.241Z,48.4
2023-01-17T02:45:34.241Z,48.3
2023-01-17T02:50:34.079Z,48.4
2023-01-17T02:55:34.154Z,48.4
2023-01-17T03:00:34.506Z,48.5
2023-01-17T03:05:34.823Z,48.4
2023-01-17T03:10:37.877Z,48.4
2023-01-17T03:15:37.697Z,48.5
2023-01-17T03:20:37.946Z,48.6
2023-01-17T03:25:38.284Z,48.5
2023-01-17T03:30:38.666Z,48.4
2023-01-17T03:35:38.755Z,48.4
2023-01-17T03:40:41.760Z,48.3
2023-01-17T03:45:41.580Z,48.4
2023-01-17T03:50:44.333Z,48.5
2023-01-17T03:55:46.797Z,48.5
2023-01-17T04:00:49.153Z,48.5
2023-01-17T04:05:48.754Z,48.5
2023-01-17T04:10:49.137Z,48.5
2023-01-17T04:15:49.449Z,48.6
2023-01-17T04:20:49.926Z,48.6
2023-01-17T04:25:53.005Z,48.5
2023-01-17T04:30:52.871Z,48.5
2023-01-17T04:35:53.106Z,48.6
2023-01-17T04:40:53.514Z,48.5
2023-01-17T04:45:53.729Z,48.6
2023-01-17T04:50:53.888Z,48.6
2023-01-17T04:55:56.975Z,48.6
2023-01-17T05:00:56.674Z,48.6
2023-01-17T05:05:56.938Z,48.6
2023-01-17T05:10:57.499Z,48.5
2023-01-17T05:15:57.994Z,48.5
2023-01-17T05:21:00.888Z,48.5
2023-01-17T05:26:00.637Z,48.5
2023-01-17T05:31:01.060Z,48.7
2023-01-17T05:36:01.241Z,48.7
2023-01-17T05:41:01.282Z,48.8
2023-01-17T05:46:01.703Z,48.8
2023-01-17T05:51:02.032Z,48.7
2023-01-17T05:56:02.261Z,48.8
2023-01-17T06:01:02.751Z,48.8
2023-01-17T06:06:02.862Z,48.8
2023-01-17T06:11:06.012Z,48.9
2023-01-17T06:16:05.731Z,48.9
2023-01-17T06:21:06.107Z,48.8
2023-01-17T06:26:06.517Z,48.6
2023-01-17T06:31:06.877Z,48.8
2023-01-17T06:36:07.014Z,48.8
2023-01-17T06:41:08.453Z,48.6
2023-01-17T06:46:08.655Z,48.7
2023-01-17T06:51:08.973Z,48.7
2023-01-17T06:56:12.046Z,48.7
2023-01-17T07:01:11.953Z,48.9
2023-01-17T07:06:10.920Z,49.1
2023-01-17T07:11:12.496Z,49
2023-01-17T07:16:15.376Z,49.1
2023-01-17T07:21:15.268Z,49.1
2023-01-17T07:26:15.345Z,49
2023-01-17T07:31:15.831Z,48.9
2023-01-17T07:36:16.097Z,49.1
2023-01-17T07:41:16.144Z,49.2
2023-01-17T07:46:16.466Z,49.2
2023-01-17T07:51:16.784Z,49.3
2023-01-17T07:56:19.796Z,49.3
2023-01-17T08:01:19.765Z,49.5
2023-01-17T08:06:19.997Z,49.2
2023-01-17T08:11:20.328Z,49.1
2023-01-17T08:16:20.707Z,49.1
2023-01-17T08:21:20.937Z,49.1
2023-01-17T08:26:24.074Z,49
2023-01-17T08:31:26.663Z,49.1
2023-01-17T08:36:27.410Z,49
2023-01-17T08:41:27.430Z,49.1
2023-01-17T08:46:27.634Z,49.1
2023-01-17T08:51:30.683Z,49
2023-01-17T08:56:32.248Z,49
2023-01-17T09:01:32.386Z,48.9
2023-01-17T09:06:32.893Z,48.9
2023-01-17T09:11:33.023Z,48.8
2023-01-17T09:16:33.370Z,48.9
2023-01-17T09:21:33.620Z,48.9
2023-01-17T09:26:34.702Z,48.9
2023-01-17T09:31:34.556Z,48.9
2023-01-17T09:36:34.828Z,49.1
2023-01-17T09:41:35.114Z,49.2
2023-01-17T09:46:35.560Z,49.2
2023-01-17T09:51:36.027Z,49.2
2023-01-17T09:56:36.450Z,49.2
2023-01-17T10:01:36.901Z,49.3
2023-01-17T10:06:36.745Z,49.3
2023-01-17T10:11:36.850Z,49.3
2023-01-17T10:16:37.214Z,49.3
2023-01-17T10:21:37.378Z,49.2
2023-01-17T10:26:37.370Z,49.2
2023-01-17T10:31:37.661Z,49.3
2023-01-17T10:36:38.030Z,49.4
2023-01-17T10:41:38.361Z,49.3
2023-01-17T10:46:41.410Z,49.3
2023-01-17T10:51:41.097Z,49.2
2023-01-17T10:56:41.095Z,49.1
2023-01-17T11:01:41.392Z,48.8
2023-01-17T11:06:57.179Z,47.9
2023-01-17T11:11:44.942Z,47.9
2023-01-17T11:16:44.922Z,47.7
2023-01-17T11:21:45.833Z,47.9
2023-01-17T11:26:47.930Z,47.3
2023-01-17T11:31:47.961Z,47.3
2023-01-17T11:36:47.894Z,46.9
2023-01-17T11:41:47.975Z,47.3
2023-01-17T11:46:48.339Z,46.6
2023-01-17T11:51:48.587Z,46.6
2023-01-17T11:56:48.988Z,46.5
2023-01-17T12:01:49.323Z,46.6
2023-01-17T12:06:57.475Z,46
2023-01-17T12:11:49.979Z,45.9
2023-01-17T12:16:50.055Z,46.2
2023-01-17T12:21:52.954Z,46.5
2023-01-17T12:26:52.918Z,46.5
2023-01-17T12:31:52.047Z,46.5
2023-01-17T12:36:52.657Z,46.6
2023-01-17T12:41:52.926Z,46.3
2023-01-17T12:46:55.889Z,46
2023-01-17T12:51:55.762Z,46.4
2023-01-17T12:56:55.575Z,46.5
2023-01-17T13:01:56.225Z,46.4
2023-01-17T13:06:56.573Z,46.7
2023-01-17T13:11:56.790Z,46.5
2023-01-17T13:16:56.786Z,46.5
2023-01-17T13:21:57.072Z,46.4
2023-01-17T13:26:57.401Z,46.4
2023-01-17T13:32:00.240Z,46.4
2023-01-17T13:36:59.310Z,46.6
2023-01-17T13:41:59.682Z,46.5
2023-01-17T13:47:02.226Z,45.4
2023-01-17T13:52:01.960Z,46.5
2023-01-17T13:57:02.011Z,46
2023-01-17T14:02:02.232Z,45.6
2023-01-17T14:07:02.511Z,46.2
2023-01-17T14:12:02.678Z,45.8
2023-01-17T14:17:02.950Z,45.6
2023-01-17T14:22:05.958Z,46.1
2023-01-17T14:27:05.754Z,46.1
2023-01-17T14:32:05.953Z,46.3
2023-01-17T14:37:06.125Z,45.8
2023-01-17T14:42:07.155Z,46.5
2023-01-17T14:47:10.046Z,46.5
2023-01-17T14:52:09.667Z,46.3
2023-01-17T14:57:09.724Z,46.4
2023-01-17T15:02:10.258Z,46.4
2023-01-17T15:07:10.340Z,46.4
2023-01-17T15:12:10.807Z,46.2
2023-01-17T15:17:10.840Z,45.8
2023-01-17T15:22:11.180Z,46.1
2023-01-17T15:27:13.121Z,46.2
2023-01-17T15:32:13.197Z,46.3
2023-01-17T15:37:13.378Z,45
2023-01-17T15:42:13.652Z,46.2
2023-01-17T15:47:13.778Z,46.1
2023-01-17T15:52:14.088Z,46.2
2023-01-17T15:57:14.281Z,46.5
2023-01-17T16:02:14.619Z,46.5
2023-01-17T16:07:15.017Z,46.6
2023-01-17T16:12:15.439Z,46.5
2023-01-17T16:17:15.440Z,46.7
2023-01-17T16:22:15.525Z,46.6
2023-01-17T16:27:15.900Z,46.7
2023-01-17T16:32:18.997Z,46.8
2023-01-17T16:37:22.025Z,46.8
2023-01-17T16:42:23.613Z,46.8
2023-01-17T16:47:23.383Z,47
2023-01-17T16:52:26.321Z,47
2023-01-17T16:57:26.126Z,47.1
2023-01-17T17:02:26.338Z,47.1
2023-01-17T17:07:26.646Z,47.2
2023-01-17T17:12:29.624Z,47.3
2023-01-17T17:17:29.497Z,47.4
2023-01-17T17:22:29.605Z,47.3
2023-01-17T17:27:29.941Z,47.5
2023-01-17T17:32:30.032Z,47.3
2023-01-17T17:37:30.118Z,47.4
2023-01-17T17:42:30.405Z,47.5
2023-01-17T17:47:30.512Z,47.5
2023-01-17T17:52:30.825Z,47.5
2023-01-17T17:57:31.018Z,47.5
2023-01-17T18:02:33.959Z,47.8
2023-01-17T18:07:33.470Z,47.5
2023-01-17T18:12:33.810Z,47.5
2023-01-17T18:17:33.965Z,47.7
2023-01-17T18:22:34.204Z,47.8
2023-01-17T18:27:34.604Z,48.1
2023-01-17T18:32:34.857Z,48.1
2023-01-17T18:37:37.676Z,48.2
2023-01-17T18:42:38.399Z,48.2
2023-01-17T18:47:38.813Z,48.4
2023-01-17T18:52:38.993Z,48.4
2023-01-17T18:57:39.218Z,48.5
2023-01-17T19:02:39.420Z,48.5
2023-01-17T19:07:39.673Z,48.5
2023-01-17T19:12:39.836Z,48.4
2023-01-17T19:17:40.010Z,48.4
2023-01-17T19:22:40.133Z,48.5
2023-01-17T19:27:40.322Z,48.2
2023-01-17T19:32:40.706Z,48.1
2023-01-17T19:37:40.968Z,48.2
2023-01-17T19:42:41.353Z,48.1
2023-01-17T19:47:41.526Z,48.1
2023-01-17T19:52:46.001Z,48.4
2023-01-17T19:57:45.318Z,48.5
2023-01-17T20:02:45.586Z,48.6
2023-01-17T20:07:48.430Z,48.7
2023-01-17T20:12:48.283Z,48.8
2023-01-17T20:17:51.161Z,49
2023-01-17T20:22:50.770Z,48.9
2023-01-17T20:27:51.098Z,49.1
2023-01-17T20:32:51.356Z,49.2
2023-01-17T20:37:51.470Z,48.3
2023-01-17T20:42:51.743Z,49.2
2023-01-17T20:47:52.000Z,49.2
2023-01-17T20:52:52.947Z,49.3
2023-01-17T20:57:53.323Z,49.4
2023-01-17T21:02:53.801Z,49.1
2023-01-17T21:07:53.994Z,49.4
2023-01-17T21:12:54.089Z,49.3
2023-01-17T21:17:54.302Z,48.8
2023-01-17T21:22:54.629Z,49.3
2023-01-17T21:27:55.109Z,49.3
2023-01-17T21:32:55.248Z,49.6
2023-01-17T21:37:55.897Z,49.5
2023-01-17T21:42:55.993Z,49.7
2023-01-17T21:47:56.636Z,49.5
2023-01-17T21:52:56.747Z,49.5
2023-01-17T21:57:57.472Z,49.6
2023-01-17T22:02:58.907Z,49.8
2023-01-17T22:08:00.282Z,49.7
2023-01-17T22:12:59.914Z,49.8
2023-01-17T22:18:00.547Z,49.8
2023-01-17T22:23:03.298Z,49.7
2023-01-17T22:28:02.932Z,49.8
2023-01-17T22:33:03.275Z,49.8
2023-01-17T22:38:03.324Z,49.8
2023-01-17T22:43:03.303Z,49.8
2023-01-17T22:48:03.354Z,50
2023-01-17T22:53:04.010Z,49.8
2023-01-17T22:58:04.113Z,50
2023-01-17T23:03:04.479Z,49.8
2023-01-17T23:08:04.853Z,50
2023-01-17T23:13:05.193Z,49.9
2023-01-17T23:18:05.331Z,50
2023-01-17T23:23:05.671Z,49.9
2023-01-17T23:28:05.963Z,49.8
2023-01-17T23:33:06.349Z,49.9
2023-01-17T23:38:06.457Z,49.9
2023-01-17T23:43:06.671Z,50
2023-01-17T23:48:06.770Z,50.1
2023-01-17T23:53:07.290Z,50.2
2023-01-17T23:58:07.997Z,50.2
